Latest Weather Observations for Montague Island

IDN60801

Issued at 5:22 pm EST Saturday 20 July 2019 (issued every 10 minutes, with the page automatically refreshed every 10 minutes)

About weather observations | Map of weather stations | Latest weather observations for NSW | Other Formats
Station Details ID: 069017 Name: MONTAGUE ISLAND LIGHTHOUSE Lat: -36.25 Lon: 150.23 Height: 52.0 m
Data from the previous 72 hours. | See also: Recent months at Montague Island
Date/Time
EST
Temp
°C
App
Temp
°C
Dew
Point
°C
Rel
Hum
%
Delta-T
°C
Wind Press
QNH
hPa
Press
MSL
hPa
Rain since
9am
mm
Dir  Spd
km/h
Gust
km/h
Spd
kts
Gust
kts
20/05:00pm 13.8 13.3 9.3 74 2.3 NNE 2 7 1 4 1017.4 1017.4 0.0
20/04:30pm 13.9 12.2 8.5 70 2.7 NNE 7 13 4 7 1017.4 1017.4 0.0
20/04:00pm 14.1 12.8 7.6 65 3.2 NNE 4 9 2 5 1017.7 1017.7 0.0
20/03:30pm 14.6 13.7 7.9 64 3.3 NE 2 9 1 5 1017.7 1017.7 0.0
20/03:00pm 14.6 13.7 7.6 63 3.5 NE 2 11 1 6 1017.8 1017.8 0.0
20/02:30pm 14.6 13.8 8.1 65 3.3 NE 2 11 1 6 1017.8 1017.8 0.0
20/02:00pm 14.2 12.6 8.2 67 3.0 NE 6 13 3 7 1018.1 1018.1 0.0
20/01:30pm 14.4 12.9 8.4 67 3.0 NE 6 15 3 8 1018.2 1018.2 0.0
20/01:00pm 14.5 11.6 8.2 66 3.2 NNE 13 20 7 11 1018.6 1018.6 0.0
20/12:30pm 14.6 13.2 9.4 71 2.7 NNE 7 15 4 8 1019.1 1019.1 0.0
20/12:00pm 14.7 13.6 9.9 73 2.5 NNE 6 13 3 7 1019.5 1019.5 0.0
20/11:30am 14.7 13.9 9.5 71 2.7 NNW 4 11 2 6 1020.2 1020.2 0.0
20/11:00am 14.6 13.4 9.6 72 2.6 NNW 6 11 3 6 1020.7 1020.7 0.0
20/10:30am 13.8 12.9 9.3 74 2.3 NNW 4 9 2 5 1021.0 1021.0 0.0
20/10:00am 13.7 13.3 9.6 76 2.1 N 2 9 1 5 1021.4 1021.4 0.0
20/09:30am 13.7 13.3 9.7 77 2.1 NW 2 7 1 4 1021.5 1021.5 0.0
20/09:00am 12.6 10.5 8.3 75 2.1 NW 9 15 5 8 1021.8 1021.8 0.0
20/08:30am 12.4 11.0 9.6 83 1.4 WNW 7 9 4 5 1021.6 1021.6 0.0
20/08:00am 12.1 11.1 10.3 89 0.9 WSW 6 9 3 5 1021.5 1021.5 0.0
20/07:30am 10.9 8.7 9.3 90 0.8 SW 11 13 6 7 1021.2 1021.2 0.0
20/07:00am 10.8 7.8 9.2 90 0.8 SW 15 17 8 9 1021.0 1021.0 0.0
20/06:30am 11.3 8.8 9.7 90 0.8 SW 13 15 7 8 1021.0 1021.0 0.0
20/06:00am 11.4 8.9 9.7 89 0.9 SW 13 15 7 8 1020.9 1020.9 0.0
20/05:30am 11.7 8.9 9.9 89 0.9 SW 15 17 8 9 1021.1 1021.1 0.0
20/05:00am 11.7 9.2 9.8 88 1.0 SW 13 15 7 8 1021.1 1021.1 0.0
20/04:30am 12.5 10.6 10.4 87 1.1 SW 11 13 6 7 1021.1 1021.1 0.0
20/04:00am 13.1 12.2 10.5 84 1.4 SSW 6 9 3 5 1021.0 1021.0 0.0
20/03:30am 13.2 12.4 9.6 79 1.8 WNW 4 7 2 4 1021.2 1021.2 0.0
20/03:00am 14.0 13.2 9.8 76 2.2 NNW 4 7 2 4 1021.5 1021.5 0.0
20/02:30am 14.3 13.9 9.7 74 2.4 NE 2 7 1 4 1021.9 1021.9 0.0
20/02:00am 14.4 13.6 9.6 73 2.5 NNE 4 11 2 6 1021.8 1021.8 0.0
20/01:30am 14.4 13.9 9.4 72 2.6 NE 2 9 1 5 1021.8 1021.8 0.0
20/01:00am 14.5 13.7 9.5 72 2.6 NNE 4 11 2 6 1021.7 1021.7 0.0
20/12:30am 14.4 13.9 9.4 72 2.6 NE 2 9 1 5 1021.7 1021.7 0.0
20/12:00am 14.4 14.3 9.4 72 2.6 CALM 0 6 0 3 1021.6 1021.6 0.0
 
Date/Time
EST
Temp
°C
App
Temp
°C
Dew
Point
°C
Rel
Hum
%
Delta-T
°C
Wind Press
QNH
hPa
Press
MSL
hPa
Rain since
9am
mm
Dir  Spd
km/h
Gust
km/h
Spd
kts
Gust
kts
19/11:30pm 14.4 14.3 9.4 72 2.6 CALM 0 7 0 4 1021.8 1021.8 0.0
19/11:00pm 14.3 14.2 9.3 72 2.6 CALM 0 6 0 3 1022.1 1022.1 0.0
19/10:30pm 14.3 14.1 9.1 71 2.7 CALM 0 6 0 3 1022.0 1022.0 0.0
19/10:00pm 14.2 14.0 9.2 72 2.5 CALM 0 6 0 3 1022.2 1022.2 0.0
19/09:30pm 14.1 13.9 9.1 72 2.5 CALM 0 0 0 0 1021.9 1021.9 0.0
19/09:00pm 14.1 14.0 9.3 73 2.4 CALM 0 7 0 4 1021.9 1021.9 0.0
19/08:30pm 14.0 13.8 9.2 73 2.4 CALM 0 0 0 0 1021.7 1021.7 0.0
19/08:00pm 13.9 13.7 9.1 73 2.4 CALM 0 2 0 1 1021.5 1021.5 0.0
19/07:30pm 14.1 14.0 9.3 73 2.5 CALM 0 0 0 0 1021.2 1021.2 0.0
19/07:00pm 14.2 13.3 9.2 72 2.5 E 4 13 2 7 1020.9 1020.9 0.0
19/06:30pm 14.0 13.3 8.4 69 2.8 E 2 7 1 4 1020.6 1020.6 0.0
19/06:00pm 14.3 12.3 8.7 69 2.8 E 9 19 5 10 1020.3 1020.3 0.0
19/05:30pm 14.3 12.1 8.0 66 3.1 E 9 15 5 8 1020.0 1020.0 0.0
19/05:00pm 14.4 11.8 7.9 65 3.2 ESE 11 17 6 9 1019.6 1019.6 0.0
19/04:30pm 14.5 12.0 8.0 65 3.2 E 11 19 6 10 1019.3 1019.3 0.0
19/04:00pm 14.7 12.1 7.7 63 3.5 E 11 17 6 9 1019.1 1019.1 0.0
19/03:30pm 14.8 12.5 7.4 61 3.7 E 9 13 5 7 1018.9 1018.9 0.0
19/03:00pm 15.2 13.9 6.2 55 4.3 ESE 2 13 1 7 1018.5 1018.5 0.0
19/02:30pm 15.8 14.8 5.7 51 4.9 CALM 0 0 0 0 1018.2 1018.2 0.0
19/02:00pm 15.9 14.8 4.9 48 5.2 CALM 0 0 0 0 1018.1 1018.1 0.0
19/01:30pm 16.0 14.9 5.3 49 5.1 CALM 0 0 0 0 1018.1 1018.1 0.0
19/01:00pm 16.1 15.2 6.0 51 4.9 CALM 0 0 0 0 1017.9 1017.9 0.0
19/12:30pm 16.2 15.1 4.9 47 5.4 CALM 0 2 0 1 1018.1 1018.1 0.0
19/12:00pm 16.6 15.7 5.9 49 5.2 CALM 0 6 0 3 1018.2 1018.2 0.0
19/11:30am 16.2 15.2 5.8 50 5.0 CALM 0 4 0 2 1018.5 1018.5 0.0
19/11:00am 16.0 14.7 5.9 51 4.9 NW 2 7 1 4 1018.6 1018.6 0.0
19/10:30am 15.7 13.9 5.3 50 5.0 NW 4 9 2 5 1018.7 1018.7 0.0
19/10:00am 15.1 12.9 5.3 52 4.6 NW 6 9 3 5 1018.7 1018.7 0.0
19/09:30am 14.4 11.7 5.7 56 4.1 WNW 9 13 5 7 1018.5 1018.5 0.0
19/09:00am 13.8 10.9 4.7 54 4.2 WNW 9 15 5 8 1018.2 1018.2 0.0
19/08:30am 13.1 9.4 4.3 55 4.0 WNW 13 17 7 9 1017.8 1017.8 0.0
19/08:00am 12.6 9.3 4.6 58 3.7 NW 11 17 6 9 1017.6 1017.6 0.0
19/07:30am 12.4 8.2 3.9 56 3.8 WNW 15 20 8 11 1017.2 1017.2 0.0
19/07:00am 11.9 7.6 3.2 55 3.8 NW 15 20 8 11 1016.8 1016.8 0.0
19/06:30am 12.0 6.8 2.5 52 4.1 WNW 19 26 10 14 1016.3 1016.3 0.0
19/06:00am 12.2 5.6 1.8 49 4.5 W 26 37 14 20 1016.0 1016.0 0.0
19/05:30am 12.4 4.8 0.8 45 4.9 W 30 35 16 19 1015.4 1015.4 0.0
19/05:00am 12.3 5.1 0.4 44 4.9 W 28 33 15 18 1015.4 1015.4 0.0
19/04:30am 11.8 4.6 0.6 46 4.7 W 28 35 15 19 1015.4 1015.4 0.0
19/04:00am 11.6 4.2 -0.5 43 4.9 W 28 37 15 20 1015.2 1015.2 0.0
19/03:30am 11.3 6.1 0.4 47 4.5 W 17 22 9 12 1015.2 1015.2 0.0
19/03:00am 11.4 7.3 -0.1 45 4.7 WNW 11 17 6 9 1015.3 1015.3 0.0
19/02:30am 11.1 6.1 1.6 52 4.0 SW 17 20 9 11 1015.2 1015.2 0.0
19/02:00am 11.4 6.0 2.4 54 3.9 W 20 26 11 14 1015.1 1015.1 0.0
19/01:30am 12.1 6.5 1.1 47 4.6 WNW 20 32 11 17 1014.8 1014.8 0.0
19/01:00am 11.3 8.6 5.8 69 2.6 NW 9 13 5 7 1014.6 1014.6 0.0
19/12:30am 11.8 9.7 6.5 70 2.5 NW 7 13 4 7 1014.8 1014.8 0.0
19/12:00am 12.1 9.8 7.6 74 2.2 WNW 9 11 5 6 1015.2 1015.2 0.0
 
Date/Time
EST
Temp
°C
App
Temp
°C
Dew
Point
°C
Rel
Hum
%
Delta-T
°C
Wind Press
QNH
hPa
Press
MSL
hPa
Rain since
9am
mm
Dir  Spd
km/h
Gust
km/h
Spd
kts
Gust
kts
18/11:30pm 12.4 10.3 8.1 75 2.1 WNW 9 11 5 6 1015.3 1015.3 0.0
18/11:00pm 12.4 10.3 8.3 76 2.0 WNW 9 13 5 7 1015.3 1015.3 0.0
18/10:30pm 12.3 10.1 8.0 75 2.1 NW 9 13 5 7 1015.5 1015.5 0.0
18/10:00pm 12.9 11.2 8.4 74 2.2 NW 7 13 4 7 1015.7 1015.7 0.0
18/09:30pm 12.9 12.2 8.4 74 2.2 NW 2 9 1 5 1015.7 1015.7 0.0
18/09:00pm 13.7 12.9 8.3 70 2.7 NW 2 6 1 3 1015.9 1015.9 0.0
18/08:30pm 14.2 13.3 6.1 58 3.9 CALM 0 0 0 0 1016.0 1016.0 0.0
18/08:00pm 14.1 13.1 5.7 57 4.0 CALM 0 7 0 4 1015.9 1015.9 0.0
18/07:30pm 14.1 13.1 5.5 56 4.1 CALM 0 0 0 0 1015.8 1015.8 0.0
18/07:00pm 14.2 13.2 5.6 56 4.1 CALM 0 0 0 0 1015.6 1015.6 0.0
18/06:30pm 14.1 13.0 4.9 54 4.3 CALM 0 0 0 0 1015.4 1015.4 0.0
18/06:00pm 14.2 11.9 5.8 57 4.0 SE 7 11 4 6 1015.0 1015.0 0.0
18/05:30pm 14.3 9.8 6.2 58 3.9 SE 19 20 10 11 1014.6 1014.6 0.0
18/05:00pm 14.5 11.2 6.6 59 3.8 SE 13 19 7 10 1014.3 1014.3 0.0
18/04:30pm 14.7 10.9 5.8 55 4.3 SE 15 19 8 10 1014.2 1014.2 0.0
18/04:00pm 14.9 12.8 5.7 54 4.4 ESE 6 15 3 8 1014.3 1014.3 0.0
18/03:30pm 14.8 9.6 5.6 54 4.4 SE 22 26 12 14 1013.9 1013.9 0.0
18/03:00pm 15.0 10.2 5.8 54 4.4 SE 20 26 11 14 1013.5 1013.5 0.0
18/02:30pm 14.9 10.3 5.4 53 4.5 SE 19 24 10 13 1013.4 1013.4 0.0
18/02:00pm 14.9 9.6 5.1 52 4.6 SSE 22 28 12 15 1013.2 1013.2 0.0
18/01:30pm 15.3 9.2 4.7 49 5.0 S 26 33 14 18 1013.3 1013.3 0.0
18/01:00pm 15.8 9.4 3.3 43 5.7 SSW 26 33 14 18 1013.5 1013.5 0.0
18/12:30pm 15.8 9.5 3.6 44 5.6 SSW 26 33 14 18 1013.4 1013.4 0.0
18/12:00pm 15.6 9.3 3.7 45 5.5 SSW 26 33 14 18 1013.8 1013.8 0.0
18/11:30am 15.4 7.6 2.9 43 5.6 SSW 33 43 18 23 1013.6 1013.6 0.0
18/11:00am 15.9 7.6 2.0 39 6.2 SW 35 43 19 23 1014.2 1014.2 0.0
18/10:30am 15.4 7.7 2.2 41 5.9 SW 32 41 17 22 1014.0 1014.0 0.0
18/10:00am 15.2 6.9 2.4 42 5.7 WSW 35 48 19 26 1013.7 1013.7 0.0
18/09:30am 14.6 6.5 3.1 46 5.2 SW 35 46 19 25 1013.6 1013.6 0.0
18/09:00am 13.9 6.9 2.2 45 5.1 SSW 28 37 15 20 1014.3 1014.3 0.0
18/08:30am 14.3 7.3 1.9 43 5.4 SW 28 33 15 18 1013.7 1013.7 0.0
18/08:00am 13.9 6.0 2.5 46 5.0 SW 33 41 18 22 1013.3 1013.3 0.0
18/07:48am 13.3 8.4 5.0 57 3.9 WSW 20 35 11 19 1013.2 1013.2 0.0
18/07:30am 12.4 10.1 7.5 72 2.4 SW 9 15 5 8 1012.9 1013.0 0.0
18/07:00am 12.9 9.9 7.6 70 2.6 W 13 19 7 10 1012.3 1012.4 0.0
18/06:30am 12.7 10.2 6.5 66 3.0 S 9 15 5 8 1011.7 1011.7 0.0
18/06:00am 12.7 8.8 3.6 54 4.1 WSW 13 15 7 8 1011.3 1011.3 0.0
18/05:30am 12.9 7.3 3.6 53 4.2 W 22 26 12 14 1010.6 1010.6 0.0
18/05:00am 13.5 6.9 4.1 53 4.3 W 28 35 15 19 1010.0 1010.0 0.0
18/04:30am 12.2 8.8 6.0 66 2.9 WNW 13 20 7 11 1009.9 1009.9 0.0
18/04:00am 12.6 9.3 4.8 59 3.6 WNW 11 19 6 10 1010.2 1010.2 0.0
18/03:30am 12.9 7.9 3.8 54 4.1 WNW 19 26 10 14 1010.1 1010.1 0.0
18/03:00am 12.9 7.7 3.6 53 4.2 W 20 26 11 14 1010.1 1010.1 0.0
18/02:30am 13.2 7.4 4.6 56 4.0 W 24 32 13 17 1010.0 1010.0 0.0
18/02:00am 12.5 7.6 5.0 60 3.5 W 20 24 11 13 1009.9 1009.9 0.0
18/01:30am 12.5 8.4 4.2 57 3.8 W 15 20 8 11 1009.9 1009.9 0.0
18/01:00am 13.3 9.2 6.2 62 3.4 WNW 17 20 9 11 1010.0 1010.0 0.0
18/12:30am 13.6 8.7 3.9 52 4.4 WNW 19 22 10 12 1009.9 1009.9 0.0
18/12:00am 13.8 8.4 4.7 54 4.2 WNW 22 28 12 15 1009.9 1009.9 0.0
 
Date/Time
EST
Temp
°C
App
Temp
°C
Dew
Point
°C
Rel
Hum
%
Delta-T
°C
Wind Press
QNH
hPa
Press
MSL
hPa
Rain since
9am
mm
Dir  Spd
km/h
Gust
km/h
Spd
kts
Gust
kts
17/11:30pm 14.1 7.4 3.6 49 4.8 WNW 28 33 15 18 1009.9 1009.9 0.0
17/11:00pm 14.4 8.3 2.9 46 5.2 WNW 24 32 13 17 1010.1 1010.1 0.0
17/10:30pm 14.6 8.2 3.4 47 5.1 WNW 26 32 14 17 1010.2 1010.2 0.0
17/10:00pm 14.4 8.3 2.9 46 5.2 WNW 24 32 13 17 1010.3 1010.3 0.0
17/09:30pm 14.4 7.0 4.1 50 4.7 WNW 32 39 17 21 1010.2 1010.2 0.0
17/09:00pm 14.6 7.1 3.7 48 5.0 WNW 32 41 17 22 1010.3 1010.3 0.0
17/08:30pm 14.6 10.1 4.0 49 4.9 NW 17 26 9 14 1010.5 1010.5 0.0
17/08:00pm 15.0 11.4 2.9 44 5.5 NW 11 19 6 10 1010.7 1010.7 0.0
17/07:30pm 15.1 10.7 2.6 43 5.6 WNW 15 26 8 14 1010.9 1010.9 0.0
17/07:00pm 15.3 9.4 1.8 40 6.0 WNW 22 32 12 17 1010.8 1010.8 0.0
17/06:30pm 15.2 8.2 1.7 40 5.9 WNW 28 33 15 18 1010.5 1010.5 0.0
17/06:00pm 15.0 8.4 2.2 42 5.7 W 26 33 14 18 1010.4 1010.4 0.0
17/05:30pm 15.3 7.8 1.1 38 6.2 W 30 35 16 19 1010.3 1010.3 0.0

Other formats

Comma delimited format used in spreadsheet applications
http://www.bom.gov.au/fwo/IDN60801/IDN60801.94939.axf

JavaScript Object Notation format (JSON) in row-major order
http://www.bom.gov.au/fwo/IDN60801/IDN60801.94939.json

Data quality

Most of these data are generated automatically and are frequently updated. Quality checks on data are not normally performed. It is possible for incorrect values to appear. Refer to information at About Latest Weather Observations and please check the disclaimer before using these data.